Time;durP1;ratioP1;P1;durP2;ratioP2;P2;SDS_P1;SDS_P2;PMS_P1;PMS_P2;Temp;Humidity;BMP_temperature;BMP_pressure;BME280_temperature;BME280_humidity;BME280_pressure;Samples;Min_cycle;Max_cycle;Signal;HPM_P1;HPM_P2
2023/11/26 00:01:42;;;;;;;;;;;;;;;;;;;;;
2023/11/26 00:07:57;;;;;;;12.30;6.97;;;;;;;;;;6093342;23;20011;-96
2023/11/26 00:13:43;;;;;;;11.05;6.10;;;;;;;;;;6070116;23;19935;-96
2023/11/26 00:16:46;;;;;;;10.82;6.05;;;;;;;;;;6065362;23;20021;-95
2023/11/26 00:19:45;;;;;;;15.45;6.97;;;;;;;;;;6073935;23;20044;-96
2023/11/26 00:22:32;;;;;;;8.75;4.90;;;;;;;;;;6073320;23;20017;-96
2023/11/26 00:28:33;;;;;;;;;;;;;;;;;;;;;
2023/11/26 00:34:13;;;;;;;;;;;;;;;;;;;;;
2023/11/26 00:37:09;;;;;;;22.92;10.55;;;;;;;;;;6255152;22;20035;-94
2023/11/26 00:39:46;;;;;;;18.58;8.60;;;;;;;;;;6232783;22;19984;-95
2023/11/26 00:47:55;;;;;;;15.63;8.38;;;;;;;;;;6151639;23;20016;-95
2023/11/26 00:50:34;;;;;;;;;;;;;;;;;;;;;
2023/11/26 00:53:21;;;;;;;;;;;;;;;;;;;;;
2023/11/26 00:55:57;;;;;;;10.82;5.35;;;;;;;;;;6164867;23;20099;-93
2023/11/26 01:01:54;;;;;;;12.07;7.05;;;;;;;;;;6163051;23;20036;-95
2023/11/26 01:08:15;;;;;;;8.52;4.38;;;;;;;;;;6067306;23;20094;-91
2023/11/26 01:10:56;;;;;;;8.80;4.57;;;;;;;;;;6044233;23;20212;-95
2023/11/26 01:22:49;;;;;;;5.85;3.78;;;;;;;;;;6254093;22;20123;-96
2023/11/26 01:28:21;;;;;;;5.10;3.17;;;;;;;;;;6191640;23;20307;-95
2023/11/26 01:30:56;;;;;;;7.13;3.35;;;;;;;;;;6223223;23;20421;-96
2023/11/26 01:33:29;;;;;;;4.53;2.90;;;;;;;;;;6222965;23;20020;-96
2023/11/26 01:36:31;;;;;;;5.15;3.22;;;;;;;;;;6222250;23;20012;-96
2023/11/26 01:39:05;;;;;;;8.02;4.25;;;;;;;;;;6220923;23;20019;-96
2023/11/26 01:55:17;;;;;;;6.28;4.13;;;;;;;;;;6083195;23;20062;-95
2023/11/26 01:58:34;;;;;;;7.38;4.15;;;;;;;;;;6047965;23;20003;-96
2023/11/26 02:04:32;;;;;;;;;;;;;;;;;;;;;
2023/11/26 02:10:14;;;;;;;9.73;5.60;;;;;;;;;;6149153;23;20088;-96
2023/11/26 02:13:10;;;;;;;10.65;6.20;;;;;;;;;;6137271;23;20006;-95
2023/11/26 02:22:20;;;;;;;;;;;;;;;;;;;;;
2023/11/26 02:27:54;;;;;;;7.50;4.30;;;;;;;;;;5997695;23;20042;-95
2023/11/26 02:31:10;;;;;;;;;;;;;;;;;;;;;
2023/11/26 02:33:40;;;;;;;9.05;4.47;;;;;;;;;;6253780;23;20389;-93
2023/11/26 02:39:43;;;;;;;6.68;4.22;;;;;;;;;;6132236;23;20016;-95
2023/11/26 02:42:36;;;;;;;7.07;4.50;;;;;;;;;;6131964;23;20057;-96
2023/11/26 02:45:29;;;;;;;7.50;4.88;;;;;;;;;;6117640;23;20013;-95
2023/11/26 02:48:26;;;;;;;;;;;;;;;;;;;;;
2023/11/26 02:51:26;;;;;;;;;;;;;;;;;;;;;
2023/11/26 02:53:56;;;;;;;5.78;4.22;;;;;;;;;;6257327;23;20035;-96
2023/11/26 03:02:24;;;;;;;5.63;3.75;;;;;;;;;;6276029;22;20027;-93
2023/11/26 03:08:08;;;;;;;6.80;3.60;;;;;;;;;;6219610;23;20015;-94
2023/11/26 03:16:38;;;;;;;5.13;3.35;;;;;;;;;;6221870;23;20024;-95
2023/11/26 03:19:04;;;;;;;5.13;3.33;;;;;;;;;;6232221;22;20482;-94
2023/11/26 03:21:47;;;;;;;;;;;;;;;;;;;;;
2023/11/26 03:24:17;;;;;;;5.03;3.13;;;;;;;;;;6284226;22;20027;-92
2023/11/26 03:26:55;;;;;;;4.90;3.08;;;;;;;;;;6255790;22;20078;-94
2023/11/26 03:30:02;;;;;;;4.68;3.10;;;;;;;;;;6256434;22;20318;-93
2023/11/26 03:32:32;;;;;;;4.78;3.00;;;;;;;;;;6256474;22;20031;-93
2023/11/26 03:38:12;;;;;;;;;;;;;;;;;;;;;
2023/11/26 03:40:58;;;;;;;4.68;2.92;;;;;;;;;;6253008;22;20095;-95
2023/11/26 03:43:48;;;;;;;5.07;2.90;;;;;;;;;;6254069;22;20002;-95
2023/11/26 03:46:17;;;;;;;4.30;2.80;;;;;;;;;;6266671;22;20038;-94
2023/11/26 03:48:53;;;;;;;5.60;2.83;;;;;;;;;;6278438;22;20019;-95
2023/11/26 03:51:24;;;;;;;4.20;2.60;;;;;;;;;;6261465;22;20083;-95
2023/11/26 03:54:15;;;;;;;4.95;2.65;;;;;;;;;;6280252;22;20000;-93
2023/11/26 03:56:51;;;;;;;;;;;;;;;;;;;;;
2023/11/26 03:59:21;;;;;;;4.53;2.63;;;;;;;;;;6282952;22;20031;-94
2023/11/26 04:01:55;;;;;;;5.05;2.78;;;;;;;;;;6281698;22;20015;-96
2023/11/26 04:04:44;;;;;;;5.90;3.40;;;;;;;;;;6254996;22;20023;-95
2023/11/26 04:07:18;;;;;;;4.88;2.72;;;;;;;;;;6255563;22;20004;-92
2023/11/26 04:09:57;;;;;;;5.10;3.30;;;;;;;;;;6264110;22;20035;-95
2023/11/26 04:12:33;;;;;;;4.70;2.72;;;;;;;;;;6269556;22;19996;-94
2023/11/26 04:15:06;;;;;;;7.03;2.70;;;;;;;;;;6301899;22;20008;-95
2023/11/26 04:17:35;;;;;;;5.03;2.67;;;;;;;;;;6260679;22;20000;-96
2023/11/26 04:20:03;;;;;;;4.85;2.80;;;;;;;;;;6258204;22;20014;-96
2023/11/26 04:22:38;;;;;;;5.65;2.95;;;;;;;;;;6256433;22;20069;-96
2023/11/26 04:25:14;;;;;;;6.13;3.00;;;;;;;;;;6256630;22;20011;-96
2023/11/26 04:27:40;;;;;;;4.75;3.08;;;;;;;;;;6255851;22;20011;-93
2023/11/26 04:30:42;;;;;;;6.03;3.00;;;;;;;;;;6255554;22;20018;-95
2023/11/26 04:33:18;;;;;;;4.90;2.80;;;;;;;;;;6253660;22;20023;-96
2023/11/26 04:35:50;;;;;;;5.22;3.35;;;;;;;;;;6252909;22;20016;-95
2023/11/26 04:38:44;;;;;;;5.10;2.90;;;;;;;;;;6274246;22;19987;-95
2023/11/26 04:41:21;;;;;;;5.85;2.83;;;;;;;;;;6251020;22;20003;-96
2023/11/26 04:44:05;;;;;;;4.43;2.85;;;;;;;;;;6253126;22;20008;-95
2023/11/26 04:46:56;;;;;;;6.90;3.00;;;;;;;;;;6226038;22;20018;-94
2023/11/26 04:49:24;;;;;;;6.00;3.17;;;;;;;;;;6244279;22;20487;-96
2023/11/26 04:52:17;;;;;;;4.25;2.63;;;;;;;;;;6253790;22;20011;-96
2023/11/26 04:54:54;;;;;;;4.63;2.92;;;;;;;;;;6191817;23;20102;-95
2023/11/26 05:00:30;;;;;;;;;;;;;;;;;;;;;
2023/11/26 05:03:25;;;;;;;3.47;2.47;;;;;;;;;;6180468;23;20044;-93
2023/11/26 05:06:17;;;;;;;5.00;2.60;;;;;;;;;;6178887;23;20086;-94
2023/11/26 05:09:08;;;;;;;3.92;2.40;;;;;;;;;;6251670;23;20000;-91
2023/11/26 05:11:55;;;;;;;5.05;2.60;;;;;;;;;;6225989;23;20334;-96
2023/11/26 05:17:57;;;;;;;6.50;3.05;;;;;;;;;;6159429;23;20025;-94
2023/11/26 05:20:54;;;;;;;;;;;;;;;;;;;;;
2023/11/26 05:23:29;;;;;;;4.57;2.92;;;;;;;;;;6098278;23;20093;-96
2023/11/26 05:26:31;;;;;;;4.40;3.10;;;;;;;;;;6076080;23;20014;-95
2023/11/26 05:31:56;;;;;;;5.53;2.88;;;;;;;;;;6147455;23;20005;-94
2023/11/26 05:34:26;;;;;;;4.43;2.58;;;;;;;;;;6132908;23;20084;-95
2023/11/26 05:37:09;;;;;;;5.63;2.53;;;;;;;;;;6131471;23;20375;-95
2023/11/26 05:39:56;;;;;;;5.47;2.10;;;;;;;;;;6129066;23;20005;-95
2023/11/26 05:43:29;;;;;;;4.93;2.42;;;;;;;;;;6123873;23;20238;-93
2023/11/26 05:45:44;;;;;;;3.40;2.30;;;;;;;;;;6146566;23;20009;-95
2023/11/26 05:48:27;;;;;;;3.33;2.17;;;;;;;;;;6131683;23;20005;-94
2023/11/26 05:54:28;;;;;;;2.83;1.95;;;;;;;;;;6126775;23;20010;-94
2023/11/26 05:57:12;;;;;;;3.47;2.25;;;;;;;;;;6152403;23;20005;-91
2023/11/26 05:59:41;;;;;;;3.65;2.33;;;;;;;;;;6223484;22;20011;-92
2023/11/26 06:05:22;;;;;;;4.90;2.85;;;;;;;;;;6250643;23;20004;-96
2023/11/26 06:08:33;;;;;;;5.70;3.20;;;;;;;;;;6281445;22;20004;-94
2023/11/26 06:11:01;;;;;;;3.72;2.10;;;;;;;;;;6190429;23;20005;-93
2023/11/26 06:13:31;;;;;;;3.38;2.00;;;;;;;;;;6164632;23;20005;-94
2023/11/26 06:19:54;;;;;;;4.55;2.47;;;;;;;;;;6188509;23;20016;-95
2023/11/26 06:22:40;;;;;;;;;;;;;;;;;;;;;
2023/11/26 06:25:15;;;;;;;4.75;2.83;;;;;;;;;;6275469;22;20086;-91
2023/11/26 06:27:43;;;;;;;6.38;2.88;;;;;;;;;;6277199;22;20004;-92
2023/11/26 06:30:36;;;;;;;3.88;1.80;;;;;;;;;;6277396;22;20004;-94
2023/11/26 06:33:03;;;;;;;3.70;2.20;;;;;;;;;;6278058;22;20000;-94
2023/11/26 06:35:37;;;;;;;3.00;1.85;;;;;;;;;;6278298;22;20098;-94
2023/11/26 06:38:21;;;;;;;;;;;;;;;;;;6279089;22;20141;-95
2023/11/26 06:46:57;;;;;;;3.83;2.45;;;;;;;;;;6218096;23;20016;-94
2023/11/26 06:49:46;;;;;;;3.53;2.53;;;;;;;;;;6195372;23;20008;-96
2023/11/26 06:52:22;;;;;;;3.47;2.20;;;;;;;;;;6201528;23;20028;-96
2023/11/26 06:54:50;;;;;;;3.15;2.20;;;;;;;;;;6218210;23;20000;-95
2023/11/26 06:57:24;;;;;;;7.30;3.00;;;;;;;;;;6218126;23;20044;-95
2023/11/26 07:00:03;;;;;;;5.10;2.70;;;;;;;;;;6176163;23;20024;-94
2023/11/26 07:02:45;;;;;;;3.35;2.28;;;;;;;;;;6194926;23;20012;-94
2023/11/26 07:08:30;;;;;;;2.97;2.30;;;;;;;;;;6195734;23;20005;-95
2023/11/26 07:14:17;;;;;;;3.17;2.63;;;;;;;;;;6236121;22;19979;-94
2023/11/26 07:17:24;;;;;;;;;;;;;;;;;;;;;
2023/11/26 07:19:49;;;;;;;3.92;3.13;;;;;;;;;;6219083;23;20083;-94
2023/11/26 07:28:11;;;;;;;3.95;2.97;;;;;;;;;;6188784;23;20052;-93
2023/11/26 07:30:38;;;;;;;3.80;2.45;;;;;;;;;;6187933;23;20015;-93
2023/11/26 07:33:07;;;;;;;2.67;2.17;;;;;;;;;;6248310;22;20007;-95
2023/11/26 07:35:37;;;;;;;3.30;3.00;;;;;;;;;;6280099;22;20016;-95
2023/11/26 07:38:16;;;;;;;3.10;2.42;;;;;;;;;;6275796;22;20000;-95
2023/11/26 07:44:13;;;;;;;2.17;1.55;;;;;;;;;;6235008;22;19999;-93
2023/11/26 07:46:46;;;;;;;3.55;1.70;;;;;;;;;;6304010;22;20006;-93
2023/11/26 07:52:23;;;;;;;2.38;1.92;;;;;;;;;;6198944;23;20016;-95
2023/11/26 07:54:50;;;;;;;3.03;2.83;;;;;;;;;;6182273;23;20021;-94
2023/11/26 07:57:22;;;;;;;4.30;3.33;;;;;;;;;;6252341;22;20503;-95
2023/11/26 07:59:48;;;;;;;3.15;2.85;;;;;;;;;;6281619;22;20018;-94
2023/11/26 08:02:15;;;;;;;3.30;3.00;;;;;;;;;;6284788;22;20019;-95
2023/11/26 08:04:44;;;;;;;4.15;3.60;;;;;;;;;;6284770;22;20335;-93
2023/11/26 08:07:17;;;;;;;3.22;2.67;;;;;;;;;;6283675;22;20007;-95
2023/11/26 08:09:48;;;;;;;6.30;2.70;;;;;;;;;;6287146;22;20030;-95
2023/11/26 08:12:14;;;;;;;6.88;3.30;;;;;;;;;;6284609;22;20003;-96
2023/11/26 08:14:48;;;;;;;3.53;3.20;;;;;;;;;;6310349;22;20007;-95
2023/11/26 08:17:22;;;;;;;4.07;3.70;;;;;;;;;;6284592;22;20050;-95
2023/11/26 08:20:18;;;;;;;3.22;2.83;;;;;;;;;;6312689;22;20003;-96
2023/11/26 08:22:59;;;;;;;3.97;3.67;;;;;;;;;;6185799;23;20198;-96
2023/11/26 08:25:44;;;;;;;3.92;3.53;;;;;;;;;;6163836;23;20016;-95
2023/11/26 08:28:13;;;;;;;3.97;3.65;;;;;;;;;;6270447;22;20003;-95
2023/11/26 08:30:41;;;;;;;3.45;3.10;;;;;;;;;;6283655;22;20003;-95
2023/11/26 08:33:07;;;;;;;3.67;3.38;;;;;;;;;;6283752;22;19999;-95
2023/11/26 08:35:34;;;;;;;5.20;3.83;;;;;;;;;;6283564;22;20060;-95
2023/11/26 08:38:02;;;;;;;4.00;3.60;;;;;;;;;;6284232;22;20061;-95
2023/11/26 08:40:41;;;;;;;3.88;3.50;;;;;;;;;;6285037;22;20052;-95
2023/11/26 08:43:10;;;;;;;3.78;3.47;;;;;;;;;;6305675;22;20003;-95
2023/11/26 08:45:54;;;;;;;3.40;3.10;;;;;;;;;;6287236;22;20113;-95
2023/11/26 08:48:21;;;;;;;3.90;3.55;;;;;;;;;;6286058;22;20008;-95
2023/11/26 08:50:47;;;;;;;3.90;3.15;;;;;;;;;;6286720;22;20005;-94
2023/11/26 08:53:13;;;;;;;3.97;3.28;;;;;;;;;;6284476;22;20003;-95
2023/11/26 08:58:39;;;;;;;6.05;2.83;;;;;;;;;;6310755;22;20337;-94
2023/11/26 09:01:06;;;;;;;3.63;2.85;;;;;;;;;;6278369;22;20019;-95
2023/11/26 09:03:32;;;;;;;3.33;3.00;;;;;;;;;;6278056;22;20000;-95
2023/11/26 09:06:04;;;;;;;3.38;2.40;;;;;;;;;;6278215;22;20038;-95
2023/11/26 09:08:31;;;;;;;3.58;2.40;;;;;;;;;;6278782;22;20030;-94
2023/11/26 09:10:58;;;;;;;3.00;2.33;;;;;;;;;;6278023;22;20012;-94
2023/11/26 09:13:29;;;;;;;3.60;2.63;;;;;;;;;;6253807;22;20015;-96
2023/11/26 09:15:59;;;;;;;3.30;2.55;;;;;;;;;;6279467;22;20026;-94
2023/11/26 09:18:29;;;;;;;4.43;2.20;;;;;;;;;;6278042;22;20008;-95
2023/11/26 09:21:02;;;;;;;2.67;2.05;;;;;;;;;;6279937;22;20012;-93
2023/11/26 09:23:29;;;;;;;3.75;2.28;;;;;;;;;;6279159;22;20000;-94
2023/11/26 09:25:59;;;;;;;3.45;2.30;;;;;;;;;;6280905;22;20386;-93
2023/11/26 09:28:34;;;;;;;2.33;1.92;;;;;;;;;;6295994;22;20003;-95
2023/11/26 09:31:03;;;;;;;2.47;2.05;;;;;;;;;;6277318;22;19987;-93
2023/11/26 09:33:40;;;;;;;3.78;2.70;;;;;;;;;;6300637;22;20007;-94
2023/11/26 09:36:07;;;;;;;3.15;2.80;;;;;;;;;;6301148;22;20024;-94
2023/11/26 09:38:33;;;;;;;3.15;2.50;;;;;;;;;;6292388;22;20000;-94
2023/11/26 09:41:36;;;;;;;4.18;2.95;;;;;;;;;;6280647;22;20021;-95
2023/11/26 09:44:08;;;;;;;4.20;2.70;;;;;;;;;;6275582;22;20363;-94
2023/11/26 09:46:45;;;;;;;4.25;2.13;;;;;;;;;;6283603;22;20038;-95
2023/11/26 09:49:17;;;;;;;2.92;2.15;;;;;;;;;;6280978;22;20093;-94
2023/11/26 09:51:47;;;;;;;3.00;1.83;;;;;;;;;;6281078;22;20007;-95
2023/11/26 09:54:17;;;;;;;2.75;1.80;;;;;;;;;;6281476;22;20486;-95
2023/11/26 09:57:05;;;;;;;2.47;1.70;;;;;;;;;;6279840;22;20078;-96
2023/11/26 09:59:56;;;;;;;2.58;1.98;;;;;;;;;;6291021;22;19996;-94
2023/11/26 10:02:28;;;;;;;2.22;1.70;;;;;;;;;;6301410;22;20011;-95
2023/11/26 10:05:03;;;;;;;2.83;1.52;;;;;;;;;;6282261;22;20019;-95
2023/11/26 10:07:45;;;;;;;3.80;1.70;;;;;;;;;;6279960;22;20004;-95
2023/11/26 10:10:15;;;;;;;2.53;2.08;;;;;;;;;;6277859;22;20034;-96
2023/11/26 10:13:08;;;;;;;;;;;;;;;;;;;;;
2023/11/26 10:15:35;;;;;;;;;;;;;;;;;;6282968;22;20108;-94
2023/11/26 10:18:17;;;;;;;3.90;2.80;;;;;;;;;;6281248;22;19899;-96
2023/11/26 10:20:53;;;;;;;4.43;3.00;;;;;;;;;;6290722;22;20019;-95
2023/11/26 10:26:27;;;;;;;6.63;4.47;;;;;;;;;;6330328;22;20058;-96
2023/11/26 10:29:00;;;;;;;6.28;3.92;;;;;;;;;;6309811;22;19991;-96
2023/11/26 10:31:35;;;;;;;;;;;;;;;;;;6310487;22;19988;-95
2023/11/26 10:34:17;;;;;;;6.30;5.90;;;;;;;;;;6309595;22;19903;-93
2023/11/26 10:36:46;;;;;;;6.88;4.97;;;;;;;;;;6308942;22;20004;-95
2023/11/26 10:39:15;;;;;;;7.60;4.95;;;;;;;;;;6309092;22;20022;-95
2023/11/26 10:41:49;;;;;;;5.93;5.43;;;;;;;;;;6331426;22;20008;-94
2023/11/26 10:44:18;;;;;;;5.00;4.60;;;;;;;;;;6309387;22;20004;-94
2023/11/26 10:46:54;;;;;;;6.13;5.63;;;;;;;;;;6296836;22;20061;-95
2023/11/26 10:49:53;;;;;;;5.93;5.32;;;;;;;;;;6297028;22;20056;-94
2023/11/26 10:52:28;;;;;;;6.22;5.63;;;;;;;;;;6297567;22;20003;-95
2023/11/26 10:55:34;;;;;;;8.18;6.45;;;;;;;;;;6295280;22;20150;-95
2023/11/26 10:58:13;;;;;;;7.18;6.40;;;;;;;;;;6293340;22;20029;-95
2023/11/26 11:01:01;;;;;;;5.32;4.80;;;;;;;;;;6295033;22;20007;-94
2023/11/26 11:03:28;;;;;;;8.25;5.55;;;;;;;;;;6292875;22;20094;-95
2023/11/26 11:06:14;;;;;;;5.10;4.70;;;;;;;;;;6290617;22;20017;-94
2023/11/26 11:11:59;;;;;;;5.57;5.10;;;;;;;;;;6312484;22;20029;-95
2023/11/26 11:14:48;;;;;;;5.60;5.15;;;;;;;;;;6304140;22;20021;-94
2023/11/26 11:17:34;;;;;;;7.07;5.30;;;;;;;;;;6313145;22;20008;-95
2023/11/26 11:20:11;;;;;;;5.20;4.72;;;;;;;;;;6285468;22;20000;-95
2023/11/26 11:22:50;;;;;;;4.68;4.28;;;;;;;;;;6286114;22;20007;-94
2023/11/26 11:25:31;;;;;;;4.82;4.25;;;;;;;;;;6289668;22;20086;-95
2023/11/26 11:28:13;;;;;;;4.95;4.50;;;;;;;;;;6296003;22;20023;-94
2023/11/26 11:30:48;;;;;;;4.68;4.28;;;;;;;;;;6260336;22;20015;-95
2023/11/26 11:33:22;;;;;;;4.05;3.53;;;;;;;;;;6263571;22;20008;-96
2023/11/26 11:35:55;;;;;;;4.13;3.72;;;;;;;;;;6255751;22;20095;-95
2023/11/26 11:38:40;;;;;;;;;;;;;;;;;;;;;
2023/11/26 11:41:16;;;;;;;5.32;4.15;;;;;;;;;;6280993;22;20087;-96
2023/11/26 11:43:45;;;;;;;4.28;3.88;;;;;;;;;;6254422;22;20007;-95
2023/11/26 11:46:29;;;;;;;4.88;4.43;;;;;;;;;;6256712;22;20455;-96
2023/11/26 11:48:58;;;;;;;4.63;4.03;;;;;;;;;;6279913;22;20008;-94
2023/11/26 11:51:56;;;;;;;5.20;4.70;;;;;;;;;;6286959;22;20067;-95
2023/11/26 11:54:41;;;;;;;5.30;4.38;;;;;;;;;;6152721;22;20068;-96
2023/11/26 11:57:15;;;;;;;6.10;4.68;;;;;;;;;;6283069;22;20345;-95
2023/11/26 11:59:47;;;;;;;6.13;5.63;;;;;;;;;;6254565;22;20003;-95
2023/11/26 12:02:18;;;;;;;5.20;4.80;;;;;;;;;;6279919;22;20007;-93
2023/11/26 12:04:47;;;;;;;6.80;5.75;;;;;;;;;;6278117;22;20010;-94
2023/11/26 12:07:34;;;;;;;5.95;5.32;;;;;;;;;;6298526;22;19991;-93
2023/11/26 12:10:03;;;;;;;6.15;5.47;;;;;;;;;;6277738;22;20003;-96
2023/11/26 12:12:29;;;;;;;6.28;5.43;;;;;;;;;;6282091;22;20429;-95
2023/11/26 12:14:55;;;;;;;5.80;5.13;;;;;;;;;;6285680;22;20004;-95
2023/11/26 12:17:27;;;;;;;5.18;4.28;;;;;;;;;;6283759;22;20035;-94
2023/11/26 12:20:22;;;;;;;4.93;3.67;;;;;;;;;;6295100;22;20063;-94
2023/11/26 12:23:00;;;;;;;6.43;3.30;;;;;;;;;;6231965;22;20058;-94
2023/11/26 12:25:30;;;;;;;9.75;4.40;;;;;;;;;;6286898;22;20019;-96
2023/11/26 12:28:06;;;;;;;7.55;3.58;;;;;;;;;;6282082;22;20318;-94
2023/11/26 12:39:48;;;;;;;4.80;4.18;;;;;;;;;;6286432;22;20033;-94
2023/11/26 12:42:18;;;;;;;5.18;4.32;;;;;;;;;;6283984;22;20000;-95
2023/11/26 12:44:55;;;;;;;3.35;2.60;;;;;;;;;;6283018;22;19995;-93
2023/11/26 12:47:37;;;;;;;5.85;4.22;;;;;;;;;;6250688;23;20008;-93
2023/11/26 12:50:18;;;;;;;4.35;3.95;;;;;;;;;;6243548;23;20013;-95
2023/11/26 12:52:59;;;;;;;4.90;4.40;;;;;;;;;;6237223;23;20004;-95
2023/11/26 12:55:28;;;;;;;5.00;4.38;;;;;;;;;;6229348;23;20046;-93
2023/11/26 13:00:49;;;;;;;;;;;;;;;;;;6234615;22;20012;-93
2023/11/26 13:03:26;;;;;;;5.00;3.50;;;;;;;;;;6247189;22;19892;-95
2023/11/26 13:06:14;;;;;;;4.40;3.97;;;;;;;;;;6235913;23;20004;-94
2023/11/26 13:08:51;;;;;;;4.60;4.20;;;;;;;;;;6257199;23;20008;-95
2023/11/26 13:11:28;;;;;;;4.35;3.85;;;;;;;;;;6227596;23;20004;-93
2023/11/26 13:14:04;;;;;;;4.72;4.20;;;;;;;;;;6238222;23;20035;-94
2023/11/26 13:16:36;;;;;;;4.55;3.88;;;;;;;;;;6271992;22;20008;-94
2023/11/26 13:19:28;;;;;;;5.70;5.20;;;;;;;;;;6229089;23;20064;-95
2023/11/26 13:21:59;;;;;;;5.43;4.93;;;;;;;;;;6226180;23;20015;-94
2023/11/26 13:24:31;;;;;;;6.05;5.25;;;;;;;;;;6241877;22;20003;-95
2023/11/26 13:27:07;;;;;;;4.90;4.50;;;;;;;;;;6282340;22;20015;-95
2023/11/26 13:32:39;;;;;;;5.10;4.60;;;;;;;;;;6158327;23;20512;-95
2023/11/26 13:35:14;;;;;;;5.93;5.18;;;;;;;;;;6262856;22;20318;-95
2023/11/26 13:37:42;;;;;;;4.90;4.45;;;;;;;;;;6280504;22;20090;-96
2023/11/26 13:40:10;;;;;;;4.85;4.22;;;;;;;;;;6281404;22;20034;-96
2023/11/26 13:43:25;;;;;;;4.50;4.10;;;;;;;;;;6281860;22;20447;-95
2023/11/26 13:45:55;;;;;;;6.50;4.70;;;;;;;;;;6281507;22;20011;-96
2023/11/26 13:48:27;;;;;;;4.55;4.15;;;;;;;;;;6281075;22;20062;-94
2023/11/26 13:50:56;;;;;;;7.35;5.38;;;;;;;;;;6279400;22;20004;-92
2023/11/26 13:53:33;;;;;;;7.68;5.22;;;;;;;;;;6282140;22;20397;-94
2023/11/26 13:56:02;;;;;;;5.35;4.88;;;;;;;;;;6282440;22;20016;-95
2023/11/26 13:58:32;;;;;;;5.43;4.93;;;;;;;;;;6259473;22;20028;-96
2023/11/26 14:01:11;;;;;;;5.25;4.72;;;;;;;;;;6257257;22;20007;-93
2023/11/26 14:03:41;;;;;;;5.47;4.70;;;;;;;;;;6257263;22;20063;-94
2023/11/26 14:06:20;;;;;;;4.60;4.20;;;;;;;;;;6282693;22;19998;-95
2023/11/26 14:09:17;;;;;;;;;;;;;;;;;;;;;
2023/11/26 14:11:48;;;;;;;4.90;4.25;;;;;;;;;;6286312;22;20055;-96
2023/11/26 14:14:49;;;;;;;4.65;4.22;;;;;;;;;;6280161;22;20004;-93
2023/11/26 14:20:23;;;;;;;6.28;4.32;;;;;;;;;;6276828;22;20011;-94
2023/11/26 14:29:32;;;;;;;4.10;3.80;;;;;;;;;;6302075;22;20437;-94
2023/11/26 14:32:01;;;;;;;8.18;5.35;;;;;;;;;;6266422;22;20031;-94
2023/11/26 14:34:37;;;;;;;8.55;6.18;;;;;;;;;;6283245;22;20396;-94
2023/11/26 14:37:09;;;;;;;9.00;5.18;;;;;;;;;;6292911;22;20011;-94
2023/11/26 14:47:34;;;;;;;4.82;3.85;;;;;;;;;;6254600;22;20074;-93
2023/11/26 14:50:04;;;;;;;9.05;4.72;;;;;;;;;;6286370;22;20034;-94
2023/11/26 14:52:51;;;;;;;11.45;5.25;;;;;;;;;;6257841;22;20004;-94
2023/11/26 15:03:27;;;;;;;7.15;5.35;;;;;;;;;;6257792;22;20047;-94
2023/11/26 15:06:18;;;;;;;9.70;4.65;;;;;;;;;;6271528;22;20015;-94
2023/11/26 15:08:54;;;;;;;9.77;5.03;;;;;;;;;;6286622;22;20096;-96
2023/11/26 15:11:42;;;;;;;10.93;4.82;;;;;;;;;;6196929;23;20001;-96
2023/11/26 15:14:17;;;;;;;13.00;6.50;;;;;;;;;;6171411;23;20008;-96
2023/11/26 15:17:06;;;;;;;16.88;7.13;;;;;;;;;;6175759;23;20017;-94
2023/11/26 15:19:52;;;;;;;4.97;3.85;;;;;;;;;;6177941;23;20022;-93
2023/11/26 15:22:32;;;;;;;6.68;5.00;;;;;;;;;;6170780;23;20061;-94
2023/11/26 15:41:17;;;;;;;8.35;4.30;;;;;;;;;;6258794;22;20014;-96
2023/11/26 15:52:10;;;;;;;7.15;4.28;;;;;;;;;;6265668;23;20018;-92
2023/11/26 15:54:43;;;;;;;8.30;4.80;;;;;;;;;;6236916;22;20000;-95
2023/11/26 16:00:12;;;;;;;9.70;5.82;;;;;;;;;;6287823;22;20038;-93
2023/11/26 16:08:05;;;;;;;6.30;3.92;;;;;;;;;;6237124;22;20023;31
2023/11/26 16:10:33;;;;;;;15.07;7.22;;;;;;;;;;6216760;22;19922;-90
2023/11/26 16:20:59;;;;;;;20.40;8.55;;;;;;;;;;6272154;22;20028;-94
2023/11/26 16:26:40;;;;;;;8.32;3.78;;;;;;;;;;6165814;23;20064;-96
2023/11/26 16:29:13;;;;;;;7.68;3.53;;;;;;;;;;6187256;22;20039;-93
2023/11/26 16:31:49;;;;;;;5.28;2.97;;;;;;;;;;6291314;22;20000;-94
2023/11/26 16:34:43;;;;;;;5.90;4.20;;;;;;;;;;6249900;23;20079;-93
2023/11/26 16:37:35;;;;;;;7.05;4.00;;;;;;;;;;6249412;23;20004;-93
2023/11/26 16:40:16;;;;;;;7.75;5.10;;;;;;;;;;6277808;22;20006;-96
2023/11/26 16:54:58;;;;;;;7.80;5.35;;;;;;;;;;6229020;23;20026;-96
2023/11/26 17:00:37;;;;;;;5.38;4.00;;;;;;;;;;6252977;23;20011;-93
2023/11/26 17:03:06;;;;;;;7.72;4.00;;;;;;;;;;6222759;23;20012;-93
2023/11/26 17:05:32;;;;;;;6.88;4.80;;;;;;;;;;6223590;23;20004;-95
2023/11/26 17:08:16;;;;;;;7.07;4.32;;;;;;;;;;6224508;23;20377;-93
2023/11/26 17:10:42;;;;;;;;;;;;;;;;;;6225424;23;20051;-94
2023/11/26 17:13:17;;;;;;;10.55;7.50;;;;;;;;;;6225956;23;19903;-92
2023/11/26 17:19:15;;;;;;;8.93;6.20;;;;;;;;;;6155439;23;20013;-95
2023/11/26 17:25:09;;;;;;;10.52;6.60;;;;;;;;;;6073182;23;20018;-96
2023/11/26 17:36:27;;;;;;;12.82;7.30;;;;;;;;;;6280152;22;20023;-92
2023/11/26 17:38:59;;;;;;;13.52;7.93;;;;;;;;;;6252966;22;20475;-91
2023/11/26 17:41:29;;;;;;;15.00;8.75;;;;;;;;;;6254431;22;20008;-91
2023/11/26 17:49:54;;;;;;;8.75;5.30;;;;;;;;;;6284055;22;20015;-94
2023/11/26 17:52:29;;;;;;;8.00;4.82;;;;;;;;;;6257847;22;20083;-91
2023/11/26 17:55:11;;;;;;;6.85;4.55;;;;;;;;;;6255824;22;20008;-92
2023/11/26 17:58:07;;;;;;;9.80;5.40;;;;;;;;;;6249410;22;20332;-94
2023/11/26 18:00:54;;;;;;;9.05;5.97;;;;;;;;;;6192732;23;20043;-92
2023/11/26 18:06:30;;;;;;;10.15;6.63;;;;;;;;;;6128420;23;20013;-90
2023/11/26 18:08:56;;;;;;;14.88;6.60;;;;;;;;;;6117830;23;20002;-92
2023/11/26 18:11:29;;;;;;;9.50;5.40;;;;;;;;;;6103961;23;20013;-92
2023/11/26 18:14:10;;;;;;;9.35;5.35;;;;;;;;;;6124964;23;20093;-93
2023/11/26 18:16:49;;;;;;;11.73;6.80;;;;;;;;;;6106731;23;20116;-92
2023/11/26 18:19:35;;;;;;;11.90;6.88;;;;;;;;;;6132972;23;20553;-93
2023/11/26 18:22:07;;;;;;;13.27;7.32;;;;;;;;;;6133001;23;20037;-95
2023/11/26 18:27:39;;;;;;;9.65;5.53;;;;;;;;;;6160029;23;20095;-94
2023/11/26 18:30:33;;;;;;;8.95;5.18;;;;;;;;;;6098888;23;20023;-93
2023/11/26 18:33:44;;;;;;;9.80;5.80;;;;;;;;;;6092073;22;20014;-94
2023/11/26 18:36:10;;;;;;;9.77;5.85;;;;;;;;;;6274680;22;20054;-94
2023/11/26 18:39:18;;;;;;;9.25;5.70;;;;;;;;;;6256924;22;20062;-93
2023/11/26 18:42:26;;;;;;;;;;;;;;;;;;;;;
2023/11/26 18:44:56;;;;;;;7.05;4.53;;;;;;;;;;6221375;23;20031;-95
2023/11/26 18:47:31;;;;;;;7.72;4.60;;;;;;;;;;6203798;23;20005;-94
2023/11/26 18:50:00;;;;;;;6.95;4.63;;;;;;;;;;6178943;23;20005;-90
2023/11/26 18:55:57;;;;;;;7.53;4.82;;;;;;;;;;6136384;23;20468;-95
2023/11/26 18:58:42;;;;;;;;;;;;;;;;;;;;;
2023/11/26 19:01:22;;;;;;;8.70;4.88;;;;;;;;;;6138166;23;20032;-96
2023/11/26 19:06:55;;;;;;;8.20;5.00;;;;;;;;;;6221122;22;20010;-94
2023/11/26 19:09:44;;;;;;;;;;;;;;;;;;;;;
2023/11/26 19:12:20;;;;;;;8.98;4.72;;;;;;;;;;6211685;22;20417;-94
2023/11/26 19:14:47;;;;;;;10.90;5.78;;;;;;;;;;6258476;22;20079;-94
2023/11/26 19:17:27;;;;;;;8.60;5.13;;;;;;;;;;6257985;22;20035;-95
2023/11/26 19:20:12;;;;;;;7.13;3.75;;;;;;;;;;6255654;22;20007;-96
2023/11/26 19:22:45;;;;;;;9.20;4.47;;;;;;;;;;6267566;22;20007;-96
2023/11/26 19:25:14;;;;;;;6.97;3.65;;;;;;;;;;6246501;22;20061;-94
2023/11/26 19:27:43;;;;;;;6.25;3.72;;;;;;;;;;6274546;22;19984;-94
2023/11/26 19:30:13;;;;;;;5.60;3.47;;;;;;;;;;6278591;22;19987;-95
2023/11/26 19:32:45;;;;;;;8.23;3.85;;;;;;;;;;6263390;22;20008;-93
2023/11/26 19:35:52;;;;;;;8.65;4.38;;;;;;;;;;6255444;22;20020;-94
2023/11/26 19:38:32;;;;;;;19.25;12.90;;;;;;;;;;6225419;22;20046;-92
2023/11/26 19:41:02;;;;;;;9.48;5.82;;;;;;;;;;6256521;22;20318;-91
2023/11/26 19:43:32;;;;;;;9.48;6.30;;;;;;;;;;6255235;22;20008;-93
2023/11/26 19:45:58;;;;;;;6.50;4.85;;;;;;;;;;6254291;22;20327;-93
2023/11/26 19:48:24;;;;;;;10.55;4.20;;;;;;;;;;6259998;22;20011;-90
2023/11/26 19:51:09;;;;;;;7.35;3.63;;;;;;;;;;6270988;22;20000;-93
2023/11/26 19:53:38;;;;;;;6.32;3.42;;;;;;;;;;6258987;22;20004;-90
2023/11/26 19:56:05;;;;;;;4.53;2.60;;;;;;;;;;6254836;22;20012;-93
2023/11/26 19:58:33;;;;;;;4.30;2.83;;;;;;;;;;6255062;22;20003;-92
2023/11/26 20:01:00;;;;;;;4.82;2.58;;;;;;;;;;6282489;22;20008;-91
2023/11/26 20:03:57;;;;;;;3.25;2.20;;;;;;;;;;6257782;22;20004;-92
2023/11/26 20:13:19;;;;;;;6.05;3.38;;;;;;;;;;6257048;22;20007;-92
2023/11/26 20:21:40;;;;;;;6.95;4.70;;;;;;;;;;6185861;23;20418;-94
2023/11/26 20:24:19;;;;;;;;;;;;;;;;;;;;;
2023/11/26 20:26:48;;;;;;;7.07;3.22;;;;;;;;;;6185806;23;20084;-92
2023/11/26 20:29:27;;;;;;;4.88;2.40;;;;;;;;;;6184767;22;20004;-95
2023/11/26 20:38:24;;;;;;;10.90;4.15;;;;;;;;;;6218475;23;20000;-92
2023/11/26 20:40:51;;;;;;;9.35;4.30;;;;;;;;;;6235631;23;20009;-93
2023/11/26 20:46:32;;;;;;;11.27;5.38;;;;;;;;;;6215589;23;20342;-91
2023/11/26 20:52:01;;;;;;;10.30;4.70;;;;;;;;;;6216926;23;20063;-92
2023/11/26 20:57:59;;;;;;;8.13;4.25;;;;;;;;;;6216804;23;20469;-94
2023/11/26 21:03:32;;;;;;;6.25;3.30;;;;;;;;;;6217072;23;20062;-91
2023/11/26 21:09:37;;;;;;;6.70;3.20;;;;;;;;;;6220222;23;20031;-92
2023/11/26 21:12:22;;;;;;;4.28;2.67;;;;;;;;;;6221852;23;20004;-95
2023/11/26 21:18:05;;;;;;;4.47;2.97;;;;;;;;;;6156393;23;20080;-93
2023/11/26 21:21:06;;;;;;;4.13;3.08;;;;;;;;;;6246474;23;20004;-93
2023/11/26 21:23:35;;;;;;;5.45;2.63;;;;;;;;;;6250450;22;20043;-91